createdAt,value
2018-08-31T00:02:29.825Z,66.65
2018-08-31T00:05:41.765Z,66.85
2018-08-31T00:08:21.394Z,66.76
2018-08-31T00:12:58.284Z,67.03
2018-08-31T00:15:26.672Z,67.04
2018-08-31T00:17:55.120Z,67.31
2018-08-31T00:20:23.498Z,67.24
2018-08-31T00:22:51.952Z,67.09
2018-08-31T00:26:04.277Z,66.91
2018-08-31T00:28:43.999Z,66.88
2018-08-31T00:33:31.113Z,67.10
2018-08-31T00:38:14.588Z,67.31
2018-08-31T00:40:53.341Z,67.47
2018-08-31T00:45:37.857Z,67.45
2018-08-31T00:48:06.731Z,67.68
2018-08-31T00:50:35.413Z,67.49
2018-08-31T00:53:04.420Z,67.33
2018-08-31T00:55:33.001Z,67.41
2018-08-31T00:58:01.462Z,68.12
2018-08-31T01:00:29.937Z,68.01
2018-08-31T01:02:58.372Z,68.14
2018-08-31T01:05:26.797Z,68.41
2018-08-31T01:07:55.241Z,68.68
2018-08-31T01:10:24.689Z,68.61
2018-08-31T01:12:54.209Z,68.99
2018-08-31T01:15:22.765Z,68.69
2018-08-31T01:17:51.187Z,68.33
2018-08-31T01:20:19.664Z,68.54
2018-08-31T01:22:48.117Z,68.56
2018-08-31T01:25:16.657Z,68.48
2018-08-31T01:27:45.075Z,68.38
2018-08-31T01:30:13.558Z,68.30
2018-08-31T01:32:42.000Z,68.41
2018-08-31T01:35:10.549Z,67.84
2018-08-31T01:37:38.956Z,68.16
2018-08-31T01:40:07.481Z,68.14
2018-08-31T01:42:35.960Z,68.01
2018-08-31T01:45:04.482Z,67.96
2018-08-31T01:47:33.317Z,67.78
2018-08-31T01:50:01.832Z,67.59
2018-08-31T01:52:30.338Z,67.79
2018-08-31T01:54:58.777Z,68.11
2018-08-31T01:57:27.318Z,68.10
2018-08-31T01:59:55.738Z,67.86
2018-08-31T02:02:24.697Z,67.96
2018-08-31T02:04:53.976Z,67.77
2018-08-31T02:07:22.395Z,67.77
2018-08-31T02:09:50.821Z,67.78
2018-08-31T02:12:19.276Z,67.84
2018-08-31T02:14:47.665Z,67.72
2018-08-31T02:17:16.122Z,67.36
2018-08-31T02:19:44.569Z,67.54
2018-08-31T02:22:13.073Z,67.28
2018-08-31T02:24:41.465Z,67.35
2018-08-31T02:27:09.902Z,67.31
2018-08-31T02:29:38.329Z,67.20
2018-08-31T02:32:06.768Z,66.97
2018-08-31T02:34:35.161Z,66.82
2018-08-31T02:37:03.587Z,66.91
2018-08-31T02:39:32.029Z,66.90
2018-08-31T02:42:00.637Z,66.65
2018-08-31T02:44:29.064Z,66.39
2018-08-31T02:46:57.461Z,66.78
2018-08-31T02:49:25.911Z,66.82
2018-08-31T02:51:54.361Z,66.96
2018-08-31T02:54:22.807Z,66.72
2018-08-31T02:56:51.221Z,66.54
2018-08-31T02:59:19.649Z,66.58
2018-08-31T03:01:48.049Z,66.17
2018-08-31T03:04:16.674Z,66.18
2018-08-31T03:06:45.070Z,66.12
2018-08-31T03:09:13.510Z,66.13
2018-08-31T03:11:42.056Z,65.90
2018-08-31T03:14:10.817Z,66.10
2018-08-31T03:16:39.217Z,65.81
2018-08-31T03:19:07.672Z,65.50
2018-08-31T03:21:36.078Z,65.50
2018-08-31T03:24:04.553Z,65.42
2018-08-31T03:26:32.978Z,65.28
2018-08-31T03:29:01.465Z,65.79
2018-08-31T03:31:29.888Z,65.40
2018-08-31T03:33:58.321Z,65.63
2018-08-31T03:36:26.756Z,65.58
2018-08-31T03:38:55.180Z,65.80
2018-08-31T03:41:23.581Z,65.70
2018-08-31T03:43:52.007Z,66.11
2018-08-31T03:46:20.457Z,65.88
2018-08-31T03:48:48.916Z,65.47
2018-08-31T03:51:17.364Z,65.19
2018-08-31T03:53:45.801Z,65.29
2018-08-31T03:56:14.258Z,65.51
2018-08-31T03:58:42.661Z,65.79
2018-08-31T04:01:11.089Z,65.32
2018-08-31T04:03:39.495Z,65.53
2018-08-31T04:06:07.943Z,65.92
2018-08-31T04:08:36.388Z,65.39
2018-08-31T04:11:04.860Z,65.65
2018-08-31T04:13:33.277Z,65.41
2018-08-31T04:16:01.705Z,65.36
2018-08-31T04:18:30.112Z,65.71
2018-08-31T04:20:58.568Z,65.76
2018-08-31T04:23:26.994Z,65.89
2018-08-31T04:25:55.413Z,65.63
2018-08-31T04:28:23.799Z,65.75
2018-08-31T04:30:52.497Z,66.13
2018-08-31T04:33:20.905Z,65.59
2018-08-31T04:35:49.294Z,65.76
2018-08-31T04:38:17.717Z,66.04
2018-08-31T04:40:46.185Z,65.35
2018-08-31T04:43:14.662Z,65.42
2018-08-31T04:45:43.100Z,65.72
2018-08-31T04:48:11.644Z,65.50
2018-08-31T04:50:40.114Z,65.57
2018-08-31T04:53:08.633Z,65.39
2018-08-31T04:55:37.042Z,65.26
2018-08-31T04:58:05.540Z,65.20
2018-08-31T05:00:33.942Z,64.98
2018-08-31T05:03:02.409Z,64.59
2018-08-31T05:05:30.797Z,64.68
2018-08-31T05:07:59.217Z,64.69
2018-08-31T05:10:27.653Z,64.55
2018-08-31T05:12:56.137Z,64.70
2018-08-31T05:15:24.525Z,64.44
2018-08-31T05:17:52.965Z,64.72
2018-08-31T05:20:21.354Z,65.00
2018-08-31T05:22:49.797Z,64.42
2018-08-31T05:25:18.164Z,64.58
2018-08-31T05:27:46.574Z,64.64
2018-08-31T05:30:15.027Z,64.13
2018-08-31T05:32:43.406Z,64.74
2018-08-31T05:35:11.836Z,64.70
2018-08-31T05:37:40.310Z,65.03
2018-08-31T05:40:08.795Z,64.70
2018-08-31T05:42:37.205Z,64.51
2018-08-31T05:45:05.889Z,64.94
2018-08-31T05:47:34.304Z,65.02
2018-08-31T05:50:02.729Z,65.10
2018-08-31T05:52:31.117Z,64.94
2018-08-31T05:54:59.533Z,65.07
2018-08-31T05:57:27.920Z,65.41
2018-08-31T05:59:56.366Z,65.25
2018-08-31T06:02:24.769Z,65.17
2018-08-31T06:04:53.219Z,65.57
2018-08-31T06:07:21.601Z,65.25
2018-08-31T06:09:50.041Z,65.32
2018-08-31T06:12:18.441Z,65.01
2018-08-31T06:14:46.841Z,65.04
2018-08-31T06:17:15.235Z,65.06
2018-08-31T06:19:43.672Z,64.89
2018-08-31T06:22:12.189Z,64.95
2018-08-31T06:24:40.588Z,64.82
2018-08-31T06:27:09.058Z,64.57
2018-08-31T06:29:37.488Z,64.52
2018-08-31T06:32:05.955Z,64.80
2018-08-31T06:34:34.368Z,64.42
2018-08-31T06:37:02.799Z,64.52
2018-08-31T06:39:31.197Z,64.96
2018-08-31T06:42:00.199Z,65.11
2018-08-31T06:44:28.594Z,65.25
2018-08-31T06:46:57.046Z,65.76
2018-08-31T06:49:25.435Z,65.53
2018-08-31T06:51:53.888Z,65.83
2018-08-31T06:54:22.288Z,65.66
2018-08-31T06:56:50.848Z,65.85
2018-08-31T06:59:19.248Z,65.44
2018-08-31T07:01:47.702Z,65.49
2018-08-31T07:04:16.175Z,65.24
2018-08-31T07:06:44.621Z,64.94
2018-08-31T07:09:13.001Z,66.04
2018-08-31T07:11:41.436Z,65.97
2018-08-31T07:14:10.121Z,65.63
2018-08-31T07:16:38.571Z,65.71
2018-08-31T07:19:07.330Z,66.33
2018-08-31T07:21:35.761Z,66.69
2018-08-31T07:24:04.217Z,66.29
2018-08-31T07:26:32.711Z,66.60
2018-08-31T07:29:01.089Z,66.24
2018-08-31T07:31:29.602Z,66.45
2018-08-31T07:33:58.054Z,66.37
2018-08-31T07:36:26.503Z,66.29
2018-08-31T07:38:54.924Z,66.30
2018-08-31T07:41:23.318Z,66.47
2018-08-31T07:43:51.827Z,65.84
2018-08-31T07:46:20.246Z,65.75
2018-08-31T07:48:48.715Z,66.31
2018-08-31T07:51:17.117Z,66.76
2018-08-31T07:53:45.573Z,67.00
2018-08-31T07:56:13.959Z,66.24
2018-08-31T07:58:42.465Z,65.69
2018-08-31T08:01:10.865Z,66.02
2018-08-31T08:03:39.307Z,66.64
2018-08-31T08:06:07.726Z,66.78
2018-08-31T08:08:36.177Z,66.35
2018-08-31T08:11:04.608Z,67.05
2018-08-31T08:13:33.089Z,67.81
2018-08-31T08:16:01.485Z,67.91
2018-08-31T08:18:29.921Z,67.21
2018-08-31T08:20:58.389Z,67.67
2018-08-31T08:23:26.903Z,67.48
2018-08-31T08:25:55.337Z,67.49
2018-08-31T08:28:23.799Z,68.17
2018-08-31T08:30:52.287Z,68.09
2018-08-31T08:33:20.731Z,68.84
2018-08-31T08:35:49.297Z,68.84
2018-08-31T08:38:17.785Z,69.19
2018-08-31T08:40:46.233Z,68.54
2018-08-31T08:43:14.664Z,68.79
2018-08-31T08:45:43.098Z,68.58
2018-08-31T08:48:11.608Z,68.24
2018-08-31T08:50:40.046Z,67.98
2018-08-31T08:53:08.444Z,68.53
2018-08-31T08:55:36.889Z,69.03
2018-08-31T08:58:05.400Z,69.32
2018-08-31T09:00:33.816Z,70.44
2018-08-31T09:03:02.249Z,70.15
2018-08-31T09:05:30.698Z,70.95
2018-08-31T09:07:59.120Z,70.75
2018-08-31T09:10:27.556Z,70.48
2018-08-31T09:12:55.973Z,70.73
2018-08-31T09:15:24.413Z,71.06
2018-08-31T09:17:53.376Z,71.30
2018-08-31T09:20:21.993Z,71.25
2018-08-31T09:22:50.293Z,71.38
2018-08-31T09:25:18.760Z,71.18
2018-08-31T09:27:47.175Z,70.79
2018-08-31T09:30:21.003Z,70.89
2018-08-31T09:32:49.460Z,71.27
2018-08-31T09:35:17.909Z,71.52
2018-08-31T09:37:46.355Z,71.26
2018-08-31T09:40:14.762Z,71.83
2018-08-31T09:42:43.204Z,70.38
2018-08-31T09:45:11.642Z,70.48
2018-08-31T09:47:40.088Z,70.78
2018-08-31T09:50:08.518Z,70.35
2018-08-31T09:52:36.946Z,71.04
2018-08-31T09:55:05.917Z,70.68
2018-08-31T09:57:34.406Z,70.63
2018-08-31T10:00:02.792Z,71.15
2018-08-31T10:02:36.321Z,71.47
2018-08-31T10:05:04.740Z,71.59
2018-08-31T10:07:33.201Z,71.00
2018-08-31T10:10:01.618Z,71.21
2018-08-31T10:12:30.065Z,70.87
2018-08-31T10:14:58.467Z,70.88
2018-08-31T10:17:26.941Z,71.45
2018-08-31T10:19:55.405Z,70.78
2018-08-31T10:22:23.873Z,71.56
2018-08-31T10:24:52.305Z,71.30
2018-08-31T10:27:20.718Z,70.92
2018-08-31T10:29:49.148Z,71.46
2018-08-31T10:32:17.544Z,71.90
2018-08-31T10:34:46.009Z,71.65
2018-08-31T10:37:14.406Z,71.52
2018-08-31T10:39:42.862Z,71.55
2018-08-31T10:42:11.253Z,71.43
2018-08-31T10:44:39.692Z,71.46
2018-08-31T10:47:08.127Z,71.24
2018-08-31T10:49:36.551Z,71.49
2018-08-31T10:52:05.026Z,71.62
2018-08-31T10:54:33.502Z,71.43
2018-08-31T10:57:01.918Z,71.41
2018-08-31T10:59:30.369Z,71.22
2018-08-31T11:01:58.770Z,71.26
2018-08-31T11:04:27.193Z,71.04
2018-08-31T11:06:55.586Z,70.82
2018-08-31T11:09:24.055Z,70.73
2018-08-31T11:11:52.481Z,71.02
2018-08-31T11:14:20.916Z,70.60
2018-08-31T11:16:49.349Z,70.03
2018-08-31T11:19:17.813Z,69.84
2018-08-31T11:21:46.223Z,69.50
2018-08-31T11:24:14.675Z,69.96
2018-08-31T11:26:43.129Z,69.79
2018-08-31T11:29:11.542Z,69.91
2018-08-31T11:31:39.986Z,69.86
2018-08-31T11:34:08.474Z,68.94
2018-08-31T11:36:36.897Z,68.97
2018-08-31T11:39:08.265Z,67.27
2018-08-31T11:41:36.881Z,66.26
2018-08-31T11:44:05.404Z,66.34
2018-08-31T11:46:33.865Z,65.52
2018-08-31T11:49:02.333Z,64.81
2018-08-31T11:51:30.785Z,66.21
2018-08-31T11:53:59.172Z,66.16
2018-08-31T11:56:27.632Z,66.36
2018-08-31T11:58:56.041Z,66.98
2018-08-31T12:01:24.512Z,66.39
2018-08-31T12:03:52.934Z,66.36
2018-08-31T12:06:21.378Z,66.51
2018-08-31T12:08:49.797Z,66.61
2018-08-31T12:11:18.185Z,66.89
2018-08-31T12:13:46.636Z,66.91
2018-08-31T12:16:15.044Z,67.50
2018-08-31T12:18:43.460Z,66.89
2018-08-31T12:21:11.888Z,66.26
2018-08-31T12:23:40.323Z,66.44
2018-08-31T12:26:08.725Z,67.26
2018-08-31T12:28:37.152Z,66.87
2018-08-31T12:31:05.771Z,66.97
2018-08-31T12:33:35.042Z,67.50
2018-08-31T12:36:03.505Z,67.67
2018-08-31T12:38:31.934Z,67.59
2018-08-31T12:41:00.353Z,67.32
2018-08-31T12:43:28.789Z,67.31
2018-08-31T12:45:57.208Z,67.66
2018-08-31T12:48:25.927Z,68.25
2018-08-31T12:50:54.346Z,68.34
2018-08-31T12:53:22.826Z,68.14
2018-08-31T12:55:51.268Z,67.60
2018-08-31T12:58:19.677Z,67.67
2018-08-31T13:00:48.121Z,68.23
2018-08-31T13:03:16.519Z,66.27
2018-08-31T13:05:44.941Z,66.91
2018-08-31T13:08:13.350Z,66.81
2018-08-31T13:10:41.805Z,67.62
2018-08-31T13:13:10.220Z,68.17
2018-08-31T13:15:44.206Z,68.72
2018-08-31T13:18:12.607Z,68.29
2018-08-31T13:20:41.073Z,66.44
2018-08-31T13:23:09.481Z,65.30
2018-08-31T13:25:37.898Z,65.68
2018-08-31T13:28:06.308Z,65.57
2018-08-31T13:30:34.770Z,65.37
2018-08-31T13:33:03.189Z,65.60
2018-08-31T13:35:31.622Z,66.37
2018-08-31T13:38:00.067Z,66.61
2018-08-31T13:40:28.513Z,66.88
2018-08-31T13:42:56.908Z,67.09
2018-08-31T13:45:25.618Z,67.44
2018-08-31T13:47:54.034Z,67.74
2018-08-31T13:50:22.472Z,68.31
2018-08-31T13:52:50.934Z,68.41
2018-08-31T13:55:19.320Z,67.71
2018-08-31T13:57:47.799Z,67.80
2018-08-31T14:00:16.269Z,67.68
2018-08-31T14:02:44.734Z,67.80
2018-08-31T14:05:13.162Z,67.73
2018-08-31T14:07:41.656Z,67.49
2018-08-31T14:10:10.100Z,67.75
2018-08-31T14:12:38.593Z,67.38
2018-08-31T14:15:07.061Z,67.74
2018-08-31T14:17:35.533Z,68.28
2018-08-31T14:20:04.009Z,68.44
2018-08-31T14:22:32.436Z,67.54
2018-08-31T14:25:00.841Z,67.99
2018-08-31T14:27:29.380Z,68.11
2018-08-31T14:29:57.971Z,68.70
2018-08-31T14:32:26.331Z,69.11
2018-08-31T14:34:54.745Z,69.60
2018-08-31T14:37:23.191Z,70.03
2018-08-31T14:39:51.623Z,69.44
2018-08-31T14:42:20.089Z,70.61
2018-08-31T14:44:48.509Z,70.43
2018-08-31T14:47:16.917Z,70.60
2018-08-31T14:49:45.435Z,69.87
2018-08-31T14:52:13.837Z,69.22
2018-08-31T14:54:42.260Z,69.41
2018-08-31T14:57:10.702Z,69.26
2018-08-31T14:59:39.170Z,68.92
2018-08-31T15:02:07.594Z,69.09
2018-08-31T15:04:36.081Z,68.56
2018-08-31T15:07:04.757Z,69.24
2018-08-31T15:09:33.213Z,68.82
2018-08-31T15:12:01.636Z,67.69
2018-08-31T15:14:30.068Z,68.41
2018-08-31T15:16:58.488Z,67.58
2018-08-31T15:19:26.973Z,67.97
2018-08-31T15:21:55.380Z,68.54
2018-08-31T15:24:23.826Z,68.52
2018-08-31T15:26:52.287Z,69.31
2018-08-31T15:29:20.732Z,68.70
2018-08-31T15:31:49.153Z,69.22
2018-08-31T15:34:17.632Z,68.43
2018-08-31T15:36:46.199Z,69.17
2018-08-31T15:39:15.210Z,69.53
2018-08-31T15:41:43.666Z,70.09
2018-08-31T15:44:12.323Z,68.90
2018-08-31T15:46:40.785Z,69.87
2018-08-31T15:49:09.265Z,69.84
2018-08-31T15:51:37.761Z,70.23
2018-08-31T15:54:06.161Z,70.86
2018-08-31T15:56:34.585Z,70.91
2018-08-31T15:59:03.005Z,70.19
2018-08-31T16:01:31.436Z,69.48
2018-08-31T16:03:59.841Z,69.43
2018-08-31T16:06:28.382Z,70.54
2018-08-31T16:08:56.774Z,70.26
2018-08-31T16:11:25.215Z,70.13
2018-08-31T16:13:53.625Z,70.59
2018-08-31T16:16:22.093Z,71.05
2018-08-31T16:18:50.558Z,71.04
2018-08-31T16:21:19.007Z,70.22
2018-08-31T16:23:47.585Z,70.17
2018-08-31T16:26:16.002Z,70.26
2018-08-31T16:28:44.426Z,70.46
2018-08-31T16:31:12.940Z,71.12
2018-08-31T16:33:41.381Z,71.64
2018-08-31T16:36:09.794Z,70.90
2018-08-31T16:38:38.239Z,71.08
2018-08-31T16:41:06.937Z,71.33
2018-08-31T16:43:35.372Z,70.71
2018-08-31T16:46:03.890Z,71.40
2018-08-31T16:48:32.333Z,71.41
2018-08-31T16:51:00.765Z,71.72
2018-08-31T16:53:29.222Z,72.10
2018-08-31T16:55:57.665Z,71.59
2018-08-31T16:58:26.157Z,72.28
2018-08-31T17:00:54.525Z,71.63
2018-08-31T17:03:22.985Z,72.00
2018-08-31T17:05:51.391Z,72.34
2018-08-31T17:08:19.855Z,72.01
2018-08-31T17:10:48.273Z,72.05
2018-08-31T17:13:16.703Z,71.91
2018-08-31T17:15:45.117Z,72.17
2018-08-31T17:18:13.572Z,72.40
2018-08-31T17:20:41.969Z,72.14
2018-08-31T17:23:10.437Z,71.60
2018-08-31T17:25:38.861Z,72.59
2018-08-31T17:28:12.973Z,72.20
2018-08-31T17:30:41.416Z,72.19
2018-08-31T17:33:15.276Z,72.77
2018-08-31T17:35:49.014Z,72.52
2018-08-31T17:38:17.489Z,72.60
2018-08-31T17:40:45.872Z,73.40
2018-08-31T17:43:14.302Z,72.58
2018-08-31T17:45:49.279Z,73.26
2018-08-31T17:48:17.712Z,73.33
2018-08-31T17:50:46.182Z,73.61
2018-08-31T17:53:14.594Z,73.19
2018-08-31T17:55:43.089Z,73.73
2018-08-31T17:58:11.527Z,73.61
2018-08-31T18:00:39.961Z,72.79
2018-08-31T18:03:08.386Z,72.85
2018-08-31T18:05:36.829Z,73.24
2018-08-31T18:08:05.427Z,73.21
2018-08-31T18:10:33.857Z,72.23
2018-08-31T18:13:02.273Z,72.09
2018-08-31T18:15:30.787Z,72.60
2018-08-31T18:17:59.187Z,72.05
2018-08-31T18:20:27.626Z,72.26
2018-08-31T18:23:02.742Z,71.94
2018-08-31T18:25:31.197Z,71.12
2018-08-31T18:27:59.621Z,71.71
2018-08-31T18:30:28.128Z,72.46
2018-08-31T18:32:56.552Z,72.91
2018-08-31T18:35:25.002Z,73.17
2018-08-31T18:37:53.469Z,72.65
2018-08-31T18:40:21.876Z,73.48
2018-08-31T18:42:50.421Z,73.54
2018-08-31T18:45:18.826Z,72.93
2018-08-31T18:47:47.307Z,72.68
2018-08-31T18:50:15.788Z,72.94
2018-08-31T18:52:44.232Z,73.38
2018-08-31T18:55:12.636Z,73.30
2018-08-31T18:57:41.101Z,73.61
2018-08-31T19:00:09.777Z,73.29
2018-08-31T19:02:38.208Z,73.24
2018-08-31T19:05:06.666Z,73.41
2018-08-31T19:07:35.097Z,73.43
2018-08-31T19:10:03.500Z,73.16
2018-08-31T19:12:32.025Z,73.21
2018-08-31T19:15:00.421Z,73.66
2018-08-31T19:17:28.845Z,74.06
2018-08-31T19:19:57.236Z,74.00
2018-08-31T19:22:25.703Z,73.68
2018-08-31T19:24:54.114Z,74.73
2018-08-31T19:27:22.573Z,74.98
2018-08-31T19:29:50.991Z,73.99
2018-08-31T19:32:19.430Z,74.33
2018-08-31T19:34:47.909Z,74.75
2018-08-31T19:37:16.338Z,74.14
2018-08-31T19:39:44.765Z,74.49
2018-08-31T19:42:13.140Z,73.71
2018-08-31T19:44:43.561Z,74.12
2018-08-31T19:47:12.041Z,74.62
2018-08-31T19:49:40.531Z,73.83
2018-08-31T19:52:09.044Z,73.82
2018-08-31T19:54:37.525Z,74.42
2018-08-31T19:57:05.985Z,74.46
2018-08-31T19:59:34.444Z,74.66
2018-08-31T20:02:03.046Z,74.23
2018-08-31T20:04:31.670Z,73.70
2018-08-31T20:07:00.198Z,73.70
2018-08-31T20:09:28.777Z,73.20
2018-08-31T20:11:57.218Z,73.49
2018-08-31T20:14:25.700Z,72.44
2018-08-31T20:16:54.480Z,73.12
2018-08-31T20:19:23.058Z,73.14
2018-08-31T20:21:51.481Z,73.54
2018-08-31T20:24:19.893Z,73.13
2018-08-31T20:26:48.408Z,72.66
2018-08-31T20:29:16.845Z,72.98
2018-08-31T20:31:45.777Z,72.45
2018-08-31T20:34:14.176Z,72.44
2018-08-31T20:36:42.696Z,72.08
2018-08-31T20:39:12.931Z,72.41
2018-08-31T20:41:41.757Z,72.72
2018-08-31T20:44:10.663Z,72.79
2018-08-31T20:46:39.177Z,71.99
2018-08-31T20:49:07.604Z,72.44
2018-08-31T20:51:36.059Z,72.24
2018-08-31T20:54:04.569Z,71.55
2018-08-31T20:56:32.965Z,71.23
2018-08-31T20:59:01.389Z,71.81
2018-08-31T21:01:29.870Z,71.29
2018-08-31T21:03:58.345Z,71.88
2018-08-31T21:06:27.784Z,72.02
2018-08-31T21:08:58.417Z,70.79
2018-08-31T21:11:26.920Z,70.64
2018-08-31T21:13:55.324Z,70.96
2018-08-31T21:19:04.470Z,70.62
2018-08-31T21:21:32.950Z,71.19
2018-08-31T21:24:01.413Z,70.87
2018-08-31T21:26:29.935Z,71.14
2018-08-31T21:28:58.713Z,70.85
2018-08-31T21:31:27.378Z,70.26
2018-08-31T21:33:55.913Z,70.54
2018-08-31T21:36:24.392Z,70.88
2018-08-31T21:38:53.896Z,71.32
2018-08-31T21:41:22.419Z,70.44
2018-08-31T21:43:50.871Z,70.68
2018-08-31T21:46:19.301Z,71.49
2018-08-31T21:48:47.761Z,70.28
2018-08-31T21:51:16.232Z,70.21
2018-08-31T21:53:44.684Z,70.11
2018-08-31T21:56:13.145Z,70.44
2018-08-31T21:58:41.610Z,71.10
2018-08-31T22:01:15.260Z,71.04
2018-08-31T22:03:43.702Z,70.67
2018-08-31T22:06:12.120Z,70.95
2018-08-31T22:08:40.569Z,71.17
2018-08-31T22:11:09.108Z,70.37
2018-08-31T22:13:37.575Z,70.65
2018-08-31T22:16:06.110Z,71.16
2018-08-31T22:18:34.625Z,70.39
2018-08-31T22:21:03.847Z,71.00
2018-08-31T22:23:32.289Z,70.24
2018-08-31T22:26:00.757Z,70.05
2018-08-31T22:28:29.168Z,70.60
2018-08-31T22:30:57.666Z,69.81
2018-08-31T22:33:26.057Z,70.57
2018-08-31T22:35:54.483Z,70.79
2018-08-31T22:38:22.866Z,70.08
2018-08-31T22:40:51.292Z,70.50
2018-08-31T22:43:22.558Z,69.92
2018-08-31T22:45:51.044Z,69.95
2018-08-31T22:48:19.458Z,70.50
2018-08-31T22:50:47.888Z,71.20
2018-08-31T22:53:16.325Z,70.22
2018-08-31T22:55:44.750Z,70.47
2018-08-31T22:58:13.153Z,70.84
2018-08-31T23:00:41.609Z,70.53
2018-08-31T23:03:10.054Z,70.98
2018-08-31T23:05:38.502Z,70.08
2018-08-31T23:08:06.913Z,70.28
2018-08-31T23:10:35.333Z,71.03
2018-08-31T23:13:03.972Z,70.94
2018-08-31T23:15:32.393Z,70.85
2018-08-31T23:18:00.836Z,70.81
2018-08-31T23:20:29.317Z,70.76
2018-08-31T23:23:03.125Z,71.06
2018-08-31T23:25:36.834Z,70.54
2018-08-31T23:28:05.319Z,70.69
2018-08-31T23:30:33.724Z,71.40
2018-08-31T23:33:02.338Z,71.40
2018-08-31T23:35:30.745Z,70.63
2018-08-31T23:37:59.197Z,70.30
2018-08-31T23:40:27.595Z,70.45
2018-08-31T23:42:56.082Z,70.96
2018-08-31T23:45:24.497Z,69.75
2018-08-31T23:47:52.942Z,70.43
2018-08-31T23:50:21.389Z,70.15
2018-08-31T23:52:49.831Z,70.95
2018-08-31T23:55:18.229Z,70.67
2018-08-31T23:57:46.689Z,71.15
